Time;durP1;ratioP1;P1;durP2;ratioP2;P2;SDS_P1;SDS_P2;PMS_P1;PMS_P2;Temp;Humidity;BMP_temperature;BMP_pressure;BME280_temperature;BME280_humidity;BME280_pressure;Samples;Min_cycle;Max_cycle;Signal;HPM_P1;HPM_P2
2023/10/10 00:00:23;;;;;;;8.10;5.82;;;;;;;20.86;nan;98383.78;5048838;28;20037;-59
2023/10/10 00:02:21;;;;;;;9.82;5.57;;;;;;;21.20;nan;98393.00;5046728;28;20059;-61
2023/10/10 00:04:50;;;;;;;10.00;6.13;;;;;;;21.21;nan;98391.91;5048772;28;20124;-60
2023/10/10 00:07:36;;;;;;;6.40;5.35;;;;;;;21.12;nan;98396.19;5042858;28;20036;-60
2023/10/10 00:10:27;;;;;;;9.48;6.22;;;;;;;21.20;nan;98403.00;5052640;28;20901;-60
2023/10/10 00:13:13;;;;;;;10.70;5.80;;;;;;;21.03;nan;98401.31;5051931;28;20052;-60
2023/10/10 00:16:05;;;;;;;8.25;6.05;;;;;;;20.82;nan;98402.34;5046238;28;20041;-60
2023/10/10 00:18:36;;;;;;;7.50;5.90;;;;;;;20.92;nan;98406.94;5045145;28;20133;-60
2023/10/10 00:21:08;;;;;;;10.77;6.43;;;;;;;21.17;nan;98407.00;5044690;28;20106;-60
2023/10/10 00:23:42;;;;;;;7.53;6.10;;;;;;;21.41;nan;98410.00;5054231;28;20045;-60
2023/10/10 00:26:12;;;;;;;9.52;6.72;;;;;;;21.33;nan;98413.22;5050136;28;20162;-61
2023/10/10 00:28:51;;;;;;;8.93;6.65;;;;;;;21.32;nan;98417.81;5051978;28;20064;-60
2023/10/10 00:31:22;;;;;;;6.97;6.10;;;;;;;21.32;nan;98423.19;5039669;28;20037;-60
2023/10/10 00:33:52;;;;;;;8.35;5.70;;;;;;;21.28;nan;98429.38;5055616;28;20044;-61
2023/10/10 00:36:28;;;;;;;7.28;6.00;;;;;;;20.82;nan;98433.84;5045060;28;20036;-60
2023/10/10 00:42:03;;;;;;;6.63;5.53;;;;;;;21.14;nan;98426.41;5042275;28;20136;-61
2023/10/10 00:44:27;;;;;;;9.05;6.55;;;;;;;21.31;nan;98432.34;5046220;28;20045;-60
2023/10/10 00:47:26;;;;;;;8.20;6.28;;;;;;;20.96;nan;98429.56;5050750;28;20443;-61
2023/10/10 00:49:55;;;;;;;9.10;6.28;;;;;;;21.15;nan;98438.00;5044004;28;20148;-63
2023/10/10 00:52:26;;;;;;;6.57;5.85;;;;;;;20.90;nan;98438.69;5042090;28;20044;-61
2023/10/10 00:54:55;;;;;;;10.77;6.43;;;;;;;20.91;nan;98445.72;5046883;28;20056;-61
2023/10/10 00:57:27;;;;;;;8.60;5.95;;;;;;;21.15;nan;98446.06;5048229;28;20131;-61
2023/10/10 00:59:57;;;;;;;7.85;6.22;;;;;;;21.34;nan;98453.34;5050503;28;20470;-60
2023/10/10 01:02:26;;;;;;;7.97;6.05;;;;;;;21.49;nan;98458.78;5052175;28;20164;-61
2023/10/10 01:04:57;;;;;;;9.13;6.55;;;;;;;21.43;nan;98464.41;5051218;28;20838;-61
2023/10/10 01:07:26;;;;;;;8.65;6.00;;;;;;;21.15;nan;98468.44;5039534;28;20052;-61
2023/10/10 01:12:28;;;;;;;8.27;5.97;;;;;;;21.34;nan;98484.88;5050574;28;20051;-62
2023/10/10 01:15:00;;;;;;;7.22;5.90;;;;;;;21.35;nan;98484.63;5040835;28;20044;-62
2023/10/10 01:17:30;;;;;;;9.93;6.03;;;;;;;21.63;nan;98490.56;5042586;28;20059;-61
2023/10/10 01:20:45;;;;;;;7.78;6.53;;;;;;;21.45;nan;98498.09;5053034;28;20056;-62
2023/10/10 01:23:00;;;;;;;13.27;6.75;;;;;;;21.36;nan;98483.53;5046042;28;20528;-61
2023/10/10 01:36:12;;;;;;;9.52;6.82;;;;;;;21.41;nan;98502.41;5054724;28;20040;-62
2023/10/10 01:38:44;;;;;;;9.98;6.50;;;;;;;21.25;nan;98513.41;5060139;28;20147;-61
2023/10/10 01:41:22;;;;;;;8.43;7.03;;;;;;;21.27;nan;98514.78;5045161;28;20152;-61
2023/10/10 01:43:54;;;;;;;8.48;6.50;;;;;;;21.47;nan;98517.50;5042843;28;20045;-61
2023/10/10 01:46:29;;;;;;;9.15;7.00;;;;;;;21.28;nan;98512.91;5052897;28;20048;-61
2023/10/10 01:49:01;;;;;;;10.60;6.97;;;;;;;21.47;nan;98525.59;5039512;28;20123;-61
2023/10/10 01:51:33;;;;;;;8.82;6.45;;;;;;;21.28;nan;98523.66;5063579;28;20124;-61
2023/10/10 01:54:14;;;;;;;9.18;7.10;;;;;;;21.34;nan;98527.97;5048325;28;20851;-61
2023/10/10 01:56:44;;;;;;;9.63;7.13;;;;;;;21.19;nan;98533.34;5048799;28;20826;-61
2023/10/10 01:59:19;;;;;;;11.27;7.40;;;;;;;21.32;nan;98543.63;5047628;28;20052;-60
2023/10/10 02:01:48;;;;;;;9.52;6.88;;;;;;;21.70;nan;98548.53;5044333;28;20048;-62
2023/10/10 02:04:22;;;;;;;9.18;7.10;;;;;;;21.59;nan;98563.09;5049714;28;20041;-61
2023/10/10 02:06:56;;;;;;;12.18;7.75;;;;;;;21.55;nan;98561.19;5047264;28;20046;-62
2023/10/10 02:09:28;;;;;;;10.98;7.03;;;;;;;21.41;nan;98569.78;5044397;28;20052;-60
2023/10/10 02:12:08;;;;;;;9.35;7.10;;;;;;;21.63;nan;98564.16;5048331;28;20435;-61
2023/10/10 02:14:37;;;;;;;12.07;8.20;;;;;;;21.80;nan;98574.69;5041820;28;20123;-61
2023/10/10 02:17:26;;;;;;;15.85;8.23;;;;;;;21.85;nan;98580.91;5042266;28;20059;-61
2023/10/10 02:22:49;;;;;;;10.95;7.28;;;;;;;22.45;nan;98603.59;5049136;28;20147;-61
2023/10/10 02:27:55;;;;;;;8.90;6.90;;;;;;;22.68;nan;98613.00;5040176;28;20045;-61
2023/10/10 02:30:35;;;;;;;9.50;6.80;;;;;;;22.84;nan;98618.13;5046103;28;20117;-61
2023/10/10 02:33:15;;;;;;;8.82;6.60;;;;;;;22.89;nan;98630.81;5059529;28;20044;-61
2023/10/10 02:35:54;;;;;;;8.95;6.72;;;;;;;22.96;nan;98628.66;5043976;28;20049;-61
2023/10/10 02:38:39;;;;;;;13.40;8.45;;;;;;;23.31;nan;98633.13;5033440;28;20077;-61
2023/10/10 02:41:27;;;;;;;16.85;11.57;;;;;;;23.36;nan;98641.22;5051621;28;20244;-61
2023/10/10 02:44:09;;;;;;;27.20;18.08;;;;;;;22.93;nan;98647.28;5068687;28;20577;-61
2023/10/10 02:46:42;;;;;;;34.45;20.42;;;;;;;23.31;nan;98653.94;5045008;28;20052;-61
2023/10/10 02:49:30;;;;;;;33.30;21.60;;;;;;;23.23;nan;98658.81;5051844;28;20052;-62
2023/10/10 02:52:06;;;;;;;39.08;25.83;;;;;;;23.51;nan;98654.69;5045901;28;20033;-61
2023/10/10 02:54:43;;;;;;;50.72;32.78;;;;;;;23.46;nan;98675.50;5042340;28;20045;-61
2023/10/10 02:59:59;;;;;;;52.70;37.17;;;;;;;23.56;nan;98689.81;5046698;28;20048;-60
2023/10/10 03:02:29;;;;;;;47.70;35.67;;;;;;;23.15;nan;98691.78;5043533;28;20308;-61
2023/10/10 03:07:31;;;;;;;51.47;34.53;;;;;;;23.55;nan;98703.59;5035302;28;20066;-59
2023/10/10 03:12:37;;;;;;;44.78;31.50;;;;;;;23.71;nan;98703.28;5050028;28;20166;-61
2023/10/10 03:17:49;;;;;;;40.25;27.58;;;;;;;23.64;nan;98718.16;5044394;28;20156;-61
2023/10/10 03:20:48;;;;;;;40.00;26.77;;;;;;;23.84;nan;98728.91;5042817;28;20538;-61
2023/10/10 03:25:54;;;;;;;34.70;22.30;;;;;;;23.95;nan;98724.22;5050369;28;20516;-61
2023/10/10 05:25:25;;;;;;;26.45;17.23;;;;;;;28.03;nan;98820.72;5000755;28;20056;-61
2023/10/10 05:27:58;;;;;;;22.05;16.80;;;;;;;28.13;nan;98817.00;5047242;28;20044;-61
2023/10/10 05:30:39;;;;;;;25.67;15.57;;;;;;;27.76;nan;98822.63;5061167;28;20049;-61
2023/10/10 05:33:09;;;;;;;23.08;14.88;;;;;;;27.61;nan;98829.19;5056488;28;20430;-61
2023/10/10 05:35:49;;;;;;;19.65;15.30;;;;;;;28.65;nan;98833.84;5055686;28;20044;-62
2023/10/10 05:38:19;;;;;;;22.17;14.07;;;;;;;28.48;nan;98829.88;5056218;28;20041;-62
2023/10/10 05:40:51;;;;;;;19.35;13.57;;;;;;;28.70;nan;98831.84;5062222;28;20032;-66
2023/10/10 05:43:26;;;;;;;23.05;15.02;;;;;;;29.14;nan;98828.34;5052739;28;20482;-63
2023/10/10 05:45:55;;;;;;;18.80;11.98;;;;;;;27.84;nan;98825.44;5051111;28;20059;-62
2023/10/10 05:48:26;;;;;;;16.90;12.95;;;;;;;28.65;nan;98822.94;5053494;28;20059;-62
2023/10/10 05:50:55;;;;;;;18.98;11.88;;;;;;;28.64;nan;98819.41;5057099;28;20041;-60
2023/10/10 05:53:25;;;;;;;19.10;13.40;;;;;;;28.45;nan;98825.03;5061955;28;20041;-60
2023/10/10 05:55:58;;;;;;;18.38;12.35;;;;;;;28.15;nan;98822.94;5061712;28;20067;-61
2023/10/10 05:58:28;;;;;;;19.67;12.65;;;;;;;27.44;nan;98813.38;5061476;28;21573;-61
2023/10/10 06:00:58;;;;;;;16.95;11.48;;;;;;;27.96;nan;98814.06;5064282;28;20503;-60
2023/10/10 06:03:28;;;;;;;18.10;12.50;;;;;;;28.37;nan;98814.84;5064088;28;20085;-61
2023/10/10 06:05:58;;;;;;;17.10;11.88;;;;;;;28.37;nan;98820.28;5060354;28;20054;-61
2023/10/10 06:08:27;;;;;;;20.08;13.30;;;;;;;27.77;nan;98808.72;5053743;28;20159;-61
2023/10/10 06:10:57;;;;;;;18.52;12.30;;;;;;;27.59;nan;98806.88;5064584;28;20044;-61
2023/10/10 06:13:29;;;;;;;16.30;12.18;;;;;;;27.18;nan;98804.06;5061702;28;20052;-61
2023/10/10 06:16:07;;;;;;;19.05;13.18;;;;;;;27.44;nan;98804.44;5059963;28;20149;-61
2023/10/10 06:18:36;;;;;;;17.45;12.50;;;;;;;27.64;nan;98812.25;5038445;28;20048;-60
2023/10/10 06:21:07;;;;;;;17.92;11.60;;;;;;;27.84;nan;98798.22;5060689;28;20106;-66
2023/10/10 06:23:41;;;;;;;21.80;13.40;;;;;;;28.01;nan;98798.44;5059488;28;20674;-65
2023/10/10 06:26:12;;;;;;;16.70;12.50;;;;;;;28.07;nan;98799.94;5060627;28;20516;-65
2023/10/10 06:28:48;;;;;;;23.20;12.32;;;;;;;28.29;nan;98801.94;5057490;28;20566;-65
2023/10/10 06:31:21;;;;;;;16.50;12.38;;;;;;;27.91;nan;98790.47;5062226;28;20045;-65
2023/10/10 06:33:50;;;;;;;17.60;11.20;;;;;;;28.46;nan;98795.84;5057354;28;20353;-65
2023/10/10 06:39:54;;;;;;;17.33;12.45;;;;;;;28.20;nan;98781.97;5060181;28;20051;-65
2023/10/10 06:41:47;;;;;;;18.17;11.68;;;;;;;28.15;nan;98782.09;5047909;28;20408;-65
2023/10/10 06:44:31;;;;;;;13.98;10.95;;;;;;;28.80;nan;98773.56;5057974;28;20048;-65
2023/10/10 06:47:08;;;;;;;18.73;11.38;;;;;;;28.53;nan;98780.69;5060818;28;20040;-65
2023/10/10 06:49:44;;;;;;;13.13;10.75;;;;;;;28.49;nan;98774.25;5062880;28;20495;-65
2023/10/10 06:52:18;;;;;;;15.18;10.80;;;;;;;28.31;nan;98769.75;5061654;28;20045;-65
2023/10/10 06:54:53;;;;;;;15.32;10.45;;;;;;;28.27;nan;98771.50;5048255;28;20417;-66
2023/10/10 06:57:38;;;;;;;13.95;10.32;;;;;;;28.13;nan;98760.63;5058470;28;20044;-66
2023/10/10 07:02:53;;;;;;;15.43;11.18;;;;;;;28.46;nan;98750.31;5060636;28;20044;-66
2023/10/10 07:05:27;;;;;;;18.70;10.90;;;;;;;27.99;nan;98753.53;5063926;28;20052;-65
2023/10/10 07:07:58;;;;;;;23.63;10.43;;;;;;;28.35;nan;98751.69;5061144;28;20157;-65
2023/10/10 07:10:35;;;;;;;14.05;9.65;;;;;;;28.48;nan;98739.94;5058387;28;20052;-65
2023/10/10 07:13:11;;;;;;;13.85;10.10;;;;;;;28.72;nan;98739.69;5053068;28;20048;-65
2023/10/10 07:15:42;;;;;;;15.93;10.38;;;;;;;28.64;nan;98745.00;5058015;28;20042;-66
2023/10/10 07:18:14;;;;;;;17.40;10.50;;;;;;;28.29;nan;98742.00;5058461;28;20048;-66
2023/10/10 07:23:37;;;;;;;12.02;8.98;;;;;;;28.44;nan;98736.22;5066614;28;20118;-65
2023/10/10 07:26:22;;;;;;;12.90;9.43;;;;;;;28.41;nan;98736.03;5064940;28;20051;-65
2023/10/10 07:28:56;;;;;;;17.60;9.63;;;;;;;28.06;nan;98726.69;5067039;28;20055;-65
2023/10/10 07:31:33;;;;;;;12.55;8.38;;;;;;;28.46;nan;98727.72;5065086;28;20131;-66
2023/10/10 07:34:15;;;;;;;12.95;9.10;;;;;;;28.43;nan;98718.25;5065531;28;20087;-66
2023/10/10 07:36:50;;;;;;;13.98;9.27;;;;;;;28.38;nan;98715.66;5060775;28;20048;-64
2023/10/10 07:39:32;;;;;;;11.63;8.88;;;;;;;28.38;nan;98709.38;5062676;28;20072;-66
2023/10/10 07:42:01;;;;;;;14.68;8.85;;;;;;;28.25;nan;98708.31;5067862;28;20044;-65
2023/10/10 07:44:30;;;;;;;14.52;8.80;;;;;;;28.29;nan;98705.78;5059169;28;20143;-65
2023/10/10 07:49:50;;;;;;;10.60;8.07;;;;;;;28.14;nan;98706.97;5063872;28;20044;-65
2023/10/10 07:52:23;;;;;;;12.60;8.73;;;;;;;28.17;nan;98700.88;5065948;28;20131;-65
2023/10/10 07:54:53;;;;;;;14.93;9.10;;;;;;;28.15;nan;98692.22;5056462;28;20516;-65
2023/10/10 07:57:26;;;;;;;13.88;8.32;;;;;;;28.30;nan;98688.34;5062751;28;20052;-65
2023/10/10 07:59:58;;;;;;;14.07;8.07;;;;;;;28.24;nan;98682.19;5065554;28;20160;-65
2023/10/10 08:02:34;;;;;;;13.63;8.13;;;;;;;28.48;nan;98688.16;5068138;28;20076;-65
2023/10/10 08:05:09;;;;;;;15.13;9.07;;;;;;;28.23;nan;98683.31;5062385;28;20048;-66
2023/10/10 08:07:39;;;;;;;14.93;8.20;;;;;;;28.41;nan;98678.81;5064343;28;20040;-65
2023/10/10 08:10:29;;;;;;;11.57;7.97;;;;;;;28.49;nan;98667.16;5066966;28;20048;-66
2023/10/10 08:13:02;;;;;;;16.63;8.52;;;;;;;28.37;nan;98675.88;5067472;28;20044;-65
2023/10/10 08:15:31;;;;;;;14.48;7.78;;;;;;;28.36;nan;98668.03;5067736;28;20045;-66
2023/10/10 08:18:00;;;;;;;10.05;7.15;;;;;;;28.33;nan;98666.72;5061957;28;20044;-65
2023/10/10 08:21:08;;;;;;;10.73;7.57;;;;;;;28.32;nan;98670.59;5063748;28;20865;-66
2023/10/10 08:23:31;;;;;;;13.75;6.75;;;;;;;28.30;nan;98667.34;5063993;28;20106;-65
2023/10/10 08:26:00;;;;;;;10.38;7.38;;;;;;;28.41;nan;98660.53;5059172;28;20379;-66
2023/10/10 08:28:30;;;;;;;12.40;5.88;;;;;;;28.45;nan;98663.47;5065391;28;20052;-66
2023/10/10 08:30:59;;;;;;;13.73;7.75;;;;;;;28.35;nan;98661.78;5066793;28;20041;-65
2023/10/10 08:33:32;;;;;;;15.63;7.05;;;;;;;28.44;nan;98659.13;5063972;28;20059;-66
2023/10/10 08:36:02;;;;;;;;;;;;;;;28.44;nan;98656.41;5049134;28;20407;-65
2023/10/10 08:38:32;;;;;;;11.55;7.00;;;;;;;28.42;nan;98651.25;5057455;28;19931;-65
2023/10/10 08:41:08;;;;;;;15.15;7.53;;;;;;;28.43;nan;98641.16;5074624;28;20144;-65
2023/10/10 08:43:45;;;;;;;13.70;6.43;;;;;;;28.45;nan;98642.47;5062044;28;20048;-66
2023/10/10 08:46:15;;;;;;;19.50;7.07;;;;;;;28.40;nan;98637.13;5055590;28;20073;-65
2023/10/10 08:48:45;;;;;;;9.60;6.93;;;;;;;28.47;nan;98642.94;5064993;28;20059;-66
2023/10/10 08:51:15;;;;;;;12.45;6.35;;;;;;;28.40;nan;98639.06;5065036;28;20044;-66
2023/10/10 08:53:45;;;;;;;9.88;5.55;;;;;;;28.32;nan;98634.34;5065465;28;20147;-66
2023/10/10 08:56:16;;;;;;;8.27;6.15;;;;;;;28.39;nan;98640.97;5049750;28;20565;-66
2023/10/10 08:58:46;;;;;;;10.65;5.65;;;;;;;28.35;nan;98629.09;5054390;28;20063;-66
2023/10/10 09:01:16;;;;;;;9.02;5.20;;;;;;;28.28;nan;98625.97;5062794;28;20082;-66
2023/10/10 09:03:47;;;;;;;8.57;5.13;;;;;;;28.33;nan;98619.59;5061589;28;20068;-65
2023/10/10 09:06:21;;;;;;;7.70;5.78;;;;;;;28.44;nan;98618.25;5063183;28;20055;-66
2023/10/10 09:08:50;;;;;;;14.27;6.18;;;;;;;28.39;nan;98621.91;5059420;28;20145;-65
2023/10/10 09:11:24;;;;;;;10.38;7.07;;;;;;;28.40;nan;98620.78;5054960;28;20136;-65
2023/10/10 09:13:54;;;;;;;13.02;7.30;;;;;;;28.47;nan;98621.16;5063124;28;20732;-66
2023/10/10 09:16:44;;;;;;;9.60;6.20;;;;;;;28.40;nan;98619.97;5050118;28;20063;-66
2023/10/10 09:19:17;;;;;;;7.90;5.22;;;;;;;28.45;nan;98617.94;4707486;28;9999835;-66
2023/10/10 09:21:51;;;;;;;10.73;5.22;;;;;;;28.37;nan;98607.00;5043652;28;20068;-66
2023/10/10 09:24:31;;;;;;;10.88;4.90;;;;;;;28.38;nan;98608.56;5059699;28;20068;-66
2023/10/10 09:27:21;;;;;;;7.38;5.45;;;;;;;28.37;nan;98599.59;5062161;28;20040;-66
2023/10/10 09:30:00;;;;;;;11.30;6.10;;;;;;;28.37;nan;98598.81;5062155;28;20045;-66
2023/10/10 09:32:42;;;;;;;12.13;5.50;;;;;;;28.33;nan;98586.91;5059564;28;20045;-66
2023/10/10 09:35:13;;;;;;;11.90;5.60;;;;;;;28.40;nan;98595.47;5059106;28;20050;-66
2023/10/10 09:37:44;;;;;;;12.13;4.90;;;;;;;28.43;nan;98592.09;5055987;28;20048;-66
2023/10/10 09:40:18;;;;;;;10.90;5.95;;;;;;;28.44;nan;98585.53;5058914;28;20052;-66
2023/10/10 09:43:03;;;;;;;13.45;6.13;;;;;;;28.45;nan;98592.63;5056695;28;20051;-65
2023/10/10 09:45:52;;;;;;;8.68;5.70;;;;;;;28.42;nan;98587.75;5054944;28;20183;-65
2023/10/10 09:49:16;;;;;;;13.77;6.53;;;;;;;28.47;nan;98587.63;5060535;28;20128;-65
2023/10/10 09:52:50;;;;;;;7.80;5.75;;;;;;;28.45;nan;98570.81;5053831;28;20157;-67
2023/10/10 09:54:26;;;;;;;7.82;4.82;;;;;;;28.46;nan;98572.41;5061820;28;20163;-66
2023/10/10 09:56:58;;;;;;;10.43;5.75;;;;;;;28.34;nan;98578.44;5058568;28;20205;-65
2023/10/10 09:59:32;;;;;;;13.40;5.75;;;;;;;28.37;nan;98569.63;5059480;28;20098;-65
2023/10/10 10:02:06;;;;;;;11.82;6.20;;;;;;;28.35;nan;98566.44;5056165;28;20572;-65
2023/10/10 10:04:41;;;;;;;7.90;5.18;;;;;;;28.47;nan;98563.13;5060292;28;20064;-67
2023/10/10 10:07:41;;;;;;;8.27;5.72;;;;;;;28.44;nan;98556.38;5056517;28;20759;-65
2023/10/10 10:10:52;;;;;;;12.38;5.80;;;;;;;28.45;nan;98557.19;5058070;28;20130;-67
2023/10/10 10:13:54;;;;;;;11.80;5.40;;;;;;;28.39;nan;98548.34;5048364;28;20414;-66
2023/10/10 10:16:54;;;;;;;10.68;6.20;;;;;;;28.34;nan;98556.63;5022697;28;20928;-65
2023/10/10 10:19:28;;;;;;;13.13;6.82;;;;;;;28.37;nan;98555.22;5061288;28;20290;-67
2023/10/10 10:22:08;;;;;;;16.45;5.80;;;;;;;28.46;nan;98556.84;5058808;28;20063;-67
2023/10/10 10:24:47;;;;;;;11.52;7.22;;;;;;;28.32;nan;98555.34;5051209;28;20079;-66
2023/10/10 10:27:49;;;;;;;14.15;6.15;;;;;;;28.25;nan;98552.25;5058861;28;20044;-65
2023/10/10 10:32:58;;;;;;;14.38;8.00;;;;;;;28.29;nan;98561.41;5057779;28;20480;-66
2023/10/10 10:36:06;;;;;;;11.63;6.25;;;;;;;28.37;nan;98560.69;5062261;28;20037;-66
2023/10/10 10:38:45;;;;;;;9.23;5.82;;;;;;;28.32;nan;98556.16;5060535;28;20044;-67
2023/10/10 10:41:41;;;;;;;8.57;5.05;;;;;;;28.31;nan;98557.28;5048548;28;20049;-66
2023/10/10 10:44:13;;;;;;;7.75;5.55;;;;;;;28.21;nan;98557.53;5052043;28;20044;-67
2023/10/10 10:46:48;;;;;;;;;;;;;;;28.32;nan;98564.34;5049275;28;20063;-66
2023/10/10 10:49:22;;;;;;;11.45;6.40;;;;;;;28.22;nan;98563.78;5048788;28;19939;-67
2023/10/10 10:52:17;;;;;;;7.93;5.95;;;;;;;28.13;nan;98563.72;5055616;28;20055;-66
2023/10/10 10:55:07;;;;;;;9.38;6.32;;;;;;;28.16;nan;98571.25;5053727;28;20155;-66
2023/10/10 10:57:40;;;;;;;8.65;5.32;;;;;;;28.08;nan;98569.25;5052118;28;20472;-66
2023/10/10 11:00:27;;;;;;;10.32;5.55;;;;;;;28.13;nan;98569.16;5054461;28;20048;-65
2023/10/10 11:02:59;;;;;;;9.50;5.53;;;;;;;28.02;nan;98571.28;5052550;28;20113;-66
2023/10/10 11:05:30;;;;;;;12.38;5.57;;;;;;;28.03;nan;98580.28;5060901;28;20143;-65
2023/10/10 11:08:11;;;;;;;9.70;5.05;;;;;;;27.98;nan;98573.03;5062640;28;20058;-67
2023/10/10 11:10:46;;;;;;;9.65;5.10;;;;;;;28.06;nan;98571.47;5062850;28;20036;-67
2023/10/10 11:13:15;;;;;;;10.15;5.20;;;;;;;27.98;nan;98573.03;5065805;28;20068;-66
2023/10/10 11:15:46;;;;;;;9.65;5.20;;;;;;;27.87;nan;98565.41;5064253;28;20198;-65
2023/10/10 11:18:24;;;;;;;8.02;5.07;;;;;;;27.84;nan;98568.78;5056184;28;20111;-66
2023/10/10 11:20:58;;;;;;;10.38;5.53;;;;;;;27.78;nan;98575.44;5058639;28;20068;-66
2023/10/10 11:23:41;;;;;;;6.95;5.07;;;;;;;27.83;nan;98567.97;5062476;28;20668;-66
2023/10/10 11:26:14;;;;;;;6.78;5.10;;;;;;;27.74;nan;98572.53;5055192;28;20062;-67
2023/10/10 11:28:47;;;;;;;;;;;;;;;27.74;nan;98577.97;5061462;28;20058;-67
2023/10/10 11:31:23;;;;;;;9.07;4.50;;;;;;;27.66;nan;98574.03;5064930;28;19924;-66
2023/10/10 11:33:56;;;;;;;14.30;5.97;;;;;;;27.75;nan;98576.06;5057382;28;20055;-67
2023/10/10 11:36:37;;;;;;;23.45;6.45;;;;;;;27.62;nan;98577.69;5046944;28;20138;-66
2023/10/10 11:39:31;;;;;;;8.00;5.15;;;;;;;27.55;nan;98580.84;5064046;28;20040;-67
2023/10/10 11:42:05;;;;;;;7.07;5.03;;;;;;;27.53;nan;98577.59;5062977;28;20455;-67
2023/10/10 11:44:34;;;;;;;9.20;5.35;;;;;;;27.49;nan;98573.06;5053015;28;20052;-67
2023/10/10 11:47:07;;;;;;;12.63;5.65;;;;;;;27.41;nan;98573.78;5061748;28;20100;-67
2023/10/10 11:49:37;;;;;;;8.88;5.75;;;;;;;27.42;nan;98568.03;5064673;28;20044;-67
2023/10/10 11:52:18;;;;;;;10.07;5.15;;;;;;;27.43;nan;98575.09;5062332;28;20068;-67
2023/10/10 11:54:47;;;;;;;12.10;5.35;;;;;;;27.29;nan;98579.75;5055014;28;20049;-66
2023/10/10 11:57:16;;;;;;;9.02;5.90;;;;;;;27.12;nan;98579.56;5060854;28;20055;-66
2023/10/10 11:59:46;;;;;;;15.52;5.93;;;;;;;27.26;nan;98575.72;5064625;28;20547;-66
2023/10/10 12:02:29;;;;;;;8.10;5.32;;;;;;;27.25;nan;98576.03;5064844;28;20130;-66
2023/10/10 12:05:14;;;;;;;13.95;7.35;;;;;;;27.22;nan;98572.00;5054317;28;20110;-66
2023/10/10 12:07:43;;;;;;;10.43;6.13;;;;;;;27.12;nan;98576.84;5053183;28;20060;-67
2023/10/10 12:10:30;;;;;;;11.43;5.80;;;;;;;26.98;nan;98567.88;5061963;28;20849;-65
2023/10/10 12:12:59;;;;;;;12.38;6.18;;;;;;;26.99;nan;98575.75;5047898;28;20513;-65
2023/10/10 12:15:29;;;;;;;15.85;6.35;;;;;;;27.01;nan;98584.41;5064470;28;20109;-65
2023/10/10 12:18:00;;;;;;;12.02;6.82;;;;;;;26.93;nan;98576.94;5055622;28;20067;-65
2023/10/10 12:20:30;;;;;;;12.93;6.60;;;;;;;26.93;nan;98578.84;5055029;28;20048;-65
2023/10/10 12:23:00;;;;;;;11.13;6.35;;;;;;;26.74;nan;98582.44;5049453;28;20083;-66
2023/10/10 12:25:33;;;;;;;15.95;7.05;;;;;;;26.72;nan;98589.28;5055459;28;20040;-66
2023/10/10 12:28:02;;;;;;;14.05;6.72;;;;;;;26.66;nan;98585.03;5050645;28;20657;-65
2023/10/10 12:30:32;;;;;;;14.00;6.90;;;;;;;26.63;nan;98582.94;5056330;28;20049;-64
2023/10/10 12:33:01;;;;;;;13.85;6.97;;;;;;;26.58;nan;98585.75;5052934;28;20048;-64
2023/10/10 12:35:32;;;;;;;12.55;6.95;;;;;;;26.53;nan;98586.63;5048499;28;20547;-64
2023/10/10 12:38:11;;;;;;;12.55;6.70;;;;;;;26.47;nan;98590.53;5061484;28;20549;-66
2023/10/10 12:40:43;;;;;;;9.90;6.05;;;;;;;26.40;nan;98594.75;5055356;28;20104;-65
2023/10/10 12:43:13;;;;;;;11.20;6.28;;;;;;;26.36;nan;98589.94;5052400;28;20044;-65
2023/10/10 12:45:42;;;;;;;18.60;8.02;;;;;;;26.31;nan;98597.34;5056792;28;20072;-64
2023/10/10 12:48:20;;;;;;;13.07;7.13;;;;;;;26.27;nan;98590.91;5055814;28;20037;-64
2023/10/10 12:50:51;;;;;;;18.73;7.95;;;;;;;26.32;nan;98596.25;5052334;28;20500;-63
2023/10/10 12:53:21;;;;;;;20.13;7.50;;;;;;;26.24;nan;98594.22;5074514;28;20060;-65
2023/10/10 12:56:00;;;;;;;20.48;8.48;;;;;;;26.21;nan;98592.88;5044801;28;20060;-65
2023/10/10 12:58:31;;;;;;;19.50;8.40;;;;;;;26.15;nan;98596.78;5053279;28;20117;-64
2023/10/10 13:01:01;;;;;;;22.25;9.38;;;;;;;26.09;nan;98595.22;5056552;28;20632;-64
2023/10/10 13:03:30;;;;;;;26.10;9.05;;;;;;;26.10;nan;98596.03;5061604;28;20059;-64
2023/10/10 13:06:04;;;;;;;16.75;8.93;;;;;;;26.05;nan;98593.41;5056238;28;20099;-64
2023/10/10 13:11:44;;;;;;;18.52;9.00;;;;;;;26.02;nan;98602.97;5061497;28;20578;-63
2023/10/10 13:14:18;;;;;;;25.58;9.27;;;;;;;26.01;nan;98598.63;5066886;28;20044;-65
2023/10/10 13:19:26;;;;;;;26.42;9.50;;;;;;;26.01;nan;98604.06;5063159;28;20135;-64
2023/10/10 13:21:57;;;;;;;20.92;9.93;;;;;;;26.01;nan;98598.63;4709650;28;10000329;-65
2023/10/10 13:24:27;;;;;;;25.77;8.27;;;;;;;25.97;nan;98596.78;5061556;28;20049;-67
2023/10/10 13:26:57;;;;;;;17.67;8.30;;;;;;;26.00;nan;98604.34;5058094;28;20063;-63
2023/10/10 13:29:27;;;;;;;18.60;7.85;;;;;;;25.94;nan;98606.31;5060619;28;20041;-61
2023/10/10 13:31:57;;;;;;;16.63;8.32;;;;;;;25.90;nan;98611.53;5059212;28;20151;-61
2023/10/10 13:34:26;;;;;;;20.92;8.88;;;;;;;25.84;nan;98604.59;5056542;28;20087;-63
2023/10/10 13:36:55;;;;;;;28.77;8.55;;;;;;;25.84;nan;98612.72;5057324;28;20151;-65
2023/10/10 13:39:43;;;;;;;21.33;8.48;;;;;;;25.77;nan;98609.56;5059536;28;20133;-63
2023/10/10 13:42:17;;;;;;;29.00;9.60;;;;;;;25.78;nan;98613.88;5060009;28;20045;-62
2023/10/10 13:44:48;;;;;;;22.45;8.02;;;;;;;25.75;nan;98613.69;5058352;28;20056;-62
2023/10/10 13:47:18;;;;;;;19.40;8.30;;;;;;;25.74;nan;98615.56;5059779;28;20064;-62
2023/10/10 13:50:13;;;;;;;29.33;8.80;;;;;;;25.71;nan;98620.78;5060135;28;20078;-62
2023/10/10 13:52:38;;;;;;;23.17;8.77;;;;;;;25.71;nan;98627.00;5057729;28;20064;-61
2023/10/10 13:55:09;;;;;;;19.05;8.27;;;;;;;25.69;nan;98618.34;5061310;28;20056;-62
2023/10/10 13:57:39;;;;;;;21.50;10.38;;;;;;;25.72;nan;98625.91;5063150;28;20544;-61
2023/10/10 14:00:28;;;;;;;16.10;8.52;;;;;;;25.65;nan;98621.94;5056453;28;20182;-61
2023/10/10 14:03:03;;;;;;;22.55;8.90;;;;;;;25.62;nan;98627.97;5060611;28;20499;-61
2023/10/10 14:05:37;;;;;;;20.45;9.90;;;;;;;25.68;nan;98633.00;5058393;28;20813;-62
2023/10/10 14:08:10;;;;;;;16.85;8.48;;;;;;;25.58;nan;98630.44;5061980;28;20528;-61
2023/10/10 14:10:41;;;;;;;20.70;10.07;;;;;;;25.59;nan;98628.53;5063562;28;20044;-61
2023/10/10 14:13:23;;;;;;;25.73;9.30;;;;;;;25.58;nan;98633.13;5067005;28;20303;-62
2023/10/10 14:15:56;;;;;;;18.83;9.15;;;;;;;25.60;nan;98627.44;5061599;28;20044;-62
2023/10/10 14:18:30;;;;;;;23.40;9.85;;;;;;;25.47;nan;98632.47;5062067;28;20048;-62
2023/10/10 14:21:08;;;;;;;25.25;9.55;;;;;;;25.47;nan;98628.94;5055931;28;20072;-62
2023/10/10 14:23:41;;;;;;;20.25;10.60;;;;;;;25.54;nan;98628.59;5057923;28;20078;-62
2023/10/10 14:26:12;;;;;;;17.30;9.65;;;;;;;25.47;nan;98637.06;5048290;28;20055;-62
2023/10/10 14:28:50;;;;;;;17.17;10.45;;;;;;;25.48;nan;98635.97;5055036;28;20048;-62
2023/10/10 14:31:24;;;;;;;22.65;10.63;;;;;;;25.47;nan;98623.50;5058189;28;20040;-62
2023/10/10 14:34:00;;;;;;;26.23;11.48;;;;;;;25.35;nan;98632.06;5061133;28;20037;-62
2023/10/10 14:36:31;;;;;;;23.13;11.13;;;;;;;25.37;nan;98631.75;5061500;28;20410;-62
2023/10/10 14:39:01;;;;;;;18.67;10.75;;;;;;;25.36;nan;98630.16;5055213;28;20049;-61
2023/10/10 14:41:30;;;;;;;18.90;11.07;;;;;;;25.35;nan;98626.66;5067075;28;20109;-64
2023/10/10 14:44:00;;;;;;;21.00;11.80;;;;;;;25.34;nan;98632.34;5067804;28;20502;-64
2023/10/10 14:46:32;;;;;;;20.40;11.80;;;;;;;25.27;nan;98635.41;5064175;28;20044;-63
2023/10/10 14:49:06;;;;;;;28.38;12.00;;;;;;;25.28;nan;98633.50;5051066;28;20148;-64
2023/10/10 14:51:37;;;;;;;23.60;11.65;;;;;;;25.24;nan;98643.31;5049248;28;20106;-62
2023/10/10 14:54:17;;;;;;;30.52;12.02;;;;;;;25.20;nan;98642.28;5061501;28;20048;-63
2023/10/10 14:56:46;;;;;;;25.52;12.93;;;;;;;25.15;nan;98647.75;5058454;28;20351;-62
2023/10/10 14:59:20;;;;;;;20.83;10.90;;;;;;;25.14;nan;98643.44;5061302;28;20682;-63
2023/10/10 15:01:51;;;;;;;23.40;12.23;;;;;;;25.09;nan;98640.78;5061101;28;20151;-64
2023/10/10 15:04:22;;;;;;;20.90;11.60;;;;;;;25.15;nan;98645.84;5063740;28;20045;-63
2023/10/10 15:06:54;;;;;;;24.33;11.48;;;;;;;25.16;nan;98650.19;5063645;28;20044;-65
2023/10/10 15:09:26;;;;;;;23.98;12.70;;;;;;;25.11;nan;98649.44;5063034;28;20131;-64